Time;durP1;ratioP1;P1;durP2;ratioP2;P2;SDS_P1;SDS_P2;PMS_P1;PMS_P2;Temp;Humidity;BMP_temperature;BMP_pressure;BME280_temperature;BME280_humidity;BME280_pressure;Samples;Min_cycle;Max_cycle;Signal;HPM_P1;HPM_P2
2023/09/20 00:00:53;;;;;;;2.70;1.50;;;;;;;15.52;61.21;99629.50;10279790;28;20042;-61
2023/09/20 00:05:55;;;;;;;2.30;1.20;;;;;;;15.47;61.65;99622.91;10297868;28;20058;-61
2023/09/20 00:10:57;;;;;;;2.25;1.20;;;;;;;15.45;61.64;99617.75;10297296;28;20052;-62
2023/09/20 00:16:00;;;;;;;1.75;1.10;;;;;;;15.23;61.83;99616.09;10296546;28;20054;-62
2023/09/20 00:21:02;;;;;;;2.88;1.35;;;;;;;15.28;61.86;99613.09;10293563;28;20552;-62
2023/09/20 00:26:04;;;;;;;1.70;1.02;;;;;;;15.20;61.94;99615.53;10296228;28;20042;-61
2023/09/20 00:31:09;;;;;;;2.72;1.13;;;;;;;15.10;62.28;99609.38;10267923;28;20056;-62
2023/09/20 00:36:20;;;;;;;4.18;1.20;;;;;;;15.11;62.89;99611.03;10294166;28;20154;-61
2023/09/20 00:41:22;;;;;;;3.03;1.23;;;;;;;14.99;62.18;99607.63;10275476;28;20527;-61
2023/09/20 00:46:25;;;;;;;3.00;1.27;;;;;;;14.77;62.86;99601.63;10296155;28;20328;-62
2023/09/20 00:51:27;;;;;;;1.45;1.10;;;;;;;14.66;63.08;99594.59;10296273;28;20061;-62
2023/09/20 00:56:30;;;;;;;3.20;1.10;;;;;;;14.75;62.96;99595.63;10295063;28;20143;-61
2023/09/20 01:01:39;;;;;;;2.58;1.10;;;;;;;14.79;63.36;99599.69;10277766;28;20051;-62
2023/09/20 01:06:41;;;;;;;2.50;1.10;;;;;;;14.55;63.47;99605.97;10294983;28;20494;-62
2023/09/20 01:11:44;;;;;;;4.82;1.40;;;;;;;14.37;64.06;99596.91;10277764;28;20054;-62
2023/09/20 01:16:46;;;;;;;1.50;1.00;;;;;;;14.41;63.88;99600.97;10291164;28;20050;-62
2023/09/20 01:21:49;;;;;;;2.17;0.98;;;;;;;14.45;63.95;99599.75;10293696;28;21001;-62
2023/09/20 01:26:57;;;;;;;2.03;1.25;;;;;;;14.50;63.62;99597.63;10294772;28;20082;-62
2023/09/20 01:32:02;;;;;;;5.38;1.20;;;;;;;14.53;63.60;99594.75;10282764;28;20631;-61
2023/09/20 01:37:04;;;;;;;3.15;1.00;;;;;;;14.48;63.66;99594.25;10302859;28;20061;-61
2023/09/20 01:42:06;;;;;;;2.53;1.35;;;;;;;14.42;63.81;99588.66;10283088;28;20058;-61
2023/09/20 01:47:08;;;;;;;4.72;1.40;;;;;;;14.41;63.83;99600.16;10283291;28;20656;-61
2023/09/20 01:52:10;;;;;;;3.30;1.30;;;;;;;14.39;63.78;99586.28;10299360;28;20125;-61
2023/09/20 01:57:12;;;;;;;2.67;1.20;;;;;;;14.22;64.30;99573.66;10283936;28;20041;-61
2023/09/20 02:02:15;;;;;;;1.90;1.20;;;;;;;14.06;64.79;99574.06;10285311;28;20384;-61
2023/09/20 02:07:17;;;;;;;4.75;1.50;;;;;;;13.92;64.96;99563.78;10305627;28;20058;-61
2023/09/20 02:12:19;;;;;;;2.85;1.40;;;;;;;14.04;64.90;99557.56;10307542;28;20405;-61
2023/09/20 02:17:21;;;;;;;2.97;1.45;;;;;;;14.22;64.65;99566.59;10305296;28;20043;-61
2023/09/20 02:22:23;;;;;;;5.90;1.77;;;;;;;14.18;64.35;99569.59;10322025;28;20112;-62
2023/09/20 02:27:25;;;;;;;3.03;1.63;;;;;;;14.09;64.70;99562.44;10289067;28;20061;-61
2023/09/20 02:32:27;;;;;;;3.95;1.20;;;;;;;14.05;64.59;99568.88;10306830;28;20035;-62
2023/09/20 02:37:34;;;;;;;3.83;1.20;;;;;;;14.09;64.72;99563.28;10306073;28;20053;-61
2023/09/20 02:42:59;;;;;;;1.70;1.13;;;;;;;13.97;65.41;99564.25;10306107;28;20070;-61
2023/09/20 02:48:06;;;;;;;2.78;1.30;;;;;;;14.08;64.86;99558.97;10304271;28;20054;-61
2023/09/20 02:53:09;;;;;;;3.28;1.58;;;;;;;14.14;64.60;99550.59;10306155;28;20410;-61
2023/09/20 02:58:13;;;;;;;2.25;1.38;;;;;;;14.22;64.60;99548.19;10321694;28;20235;-61
2023/09/20 03:03:15;;;;;;;3.40;1.08;;;;;;;14.08;64.68;99548.47;10303546;28;20070;-62
2023/09/20 03:08:17;;;;;;;2.33;1.27;;;;;;;14.09;64.80;99542.22;10298421;28;20057;-61
2023/09/20 03:13:19;;;;;;;2.72;1.60;;;;;;;14.01;64.79;99544.66;10281519;28;20050;-61
2023/09/20 03:18:25;;;;;;;3.08;1.33;;;;;;;13.96;65.15;99533.66;10280086;28;20039;-62
2023/09/20 03:23:35;;;;;;;3.03;1.13;;;;;;;14.06;65.12;99539.88;10313237;28;20535;-62
2023/09/20 03:28:41;;;;;;;1.98;1.08;;;;;;;14.16;64.83;99540.78;10281578;28;20050;-61
2023/09/20 03:33:44;;;;;;;1.40;1.00;;;;;;;14.18;65.01;99535.41;10279510;28;20040;-62
2023/09/20 03:38:55;;;;;;;3.15;1.20;;;;;;;14.25;64.99;99536.56;10278851;28;20092;-61
2023/09/20 03:43:57;;;;;;;3.30;1.10;;;;;;;14.24;64.71;99535.75;10281991;28;20502;-62
2023/09/20 03:48:59;;;;;;;1.90;1.08;;;;;;;14.19;64.69;99532.63;10300782;28;20107;-62
2023/09/20 03:54:03;;;;;;;4.57;1.10;;;;;;;14.22;64.43;99523.69;10282081;28;20053;-61
2023/09/20 03:59:06;;;;;;;1.90;1.00;;;;;;;14.26;64.71;99528.56;10267839;28;20667;-62
2023/09/20 04:04:08;;;;;;;2.80;1.35;;;;;;;14.26;64.60;99506.69;10311572;28;20655;-62
2023/09/20 04:09:10;;;;;;;3.75;1.30;;;;;;;14.16;64.71;99518.91;10298512;28;20061;-61
2023/09/20 04:14:12;;;;;;;6.30;1.83;;;;;;;14.05;64.98;99513.66;10281520;28;20887;-62
2023/09/20 04:19:14;;;;;;;1.50;1.05;;;;;;;13.96;65.23;99507.38;10311607;28;20506;-62
2023/09/20 04:24:19;;;;;;;1.38;1.10;;;;;;;14.00;65.14;99506.19;10263436;28;20058;-62
2023/09/20 04:29:22;;;;;;;2.38;1.25;;;;;;;14.01;65.27;99513.09;10283301;28;20053;-62
2023/09/20 04:34:24;;;;;;;2.20;1.10;;;;;;;13.95;65.00;99510.09;10278543;28;20580;-62
2023/09/20 04:39:27;;;;;;;1.65;1.02;;;;;;;13.90;65.22;99512.28;10296297;28;20509;-62
2023/09/20 04:44:29;;;;;;;1.80;1.10;;;;;;;14.00;65.28;99506.19;10292186;28;20556;-62
2023/09/20 04:49:32;;;;;;;3.25;1.20;;;;;;;13.93;65.07;99515.50;10262840;28;20046;-62
2023/09/20 04:54:34;;;;;;;2.47;1.48;;;;;;;13.89;65.30;99510.59;10280444;28;20532;-62
2023/09/20 04:59:36;;;;;;;3.00;1.40;;;;;;;13.92;65.15;99513.84;10294115;28;20722;-62
2023/09/20 05:04:40;;;;;;;2.03;1.33;;;;;;;13.98;65.07;99512.50;10281149;28;20145;-62
2023/09/20 05:09:44;;;;;;;1.75;1.27;;;;;;;13.96;64.87;99520.53;10285750;28;20143;-61
2023/09/20 05:14:49;;;;;;;4.03;1.55;;;;;;;13.81;65.41;99521.72;10260265;28;20046;-62
2023/09/20 05:19:53;;;;;;;3.63;1.40;;;;;;;13.88;65.25;99503.69;10272154;28;20077;-62
2023/09/20 05:24:56;;;;;;;2.28;1.23;;;;;;;13.84;65.42;99510.97;10302257;28;20104;-62
2023/09/20 05:29:58;;;;;;;1.98;1.05;;;;;;;13.81;65.44;99507.75;10286255;28;20129;-62
2023/09/20 05:35:00;;;;;;;3.30;1.02;;;;;;;13.68;65.72;99494.75;10302792;28;20065;-62
2023/09/20 05:40:03;;;;;;;1.00;0.93;;;;;;;13.76;65.44;99495.81;10303825;28;20410;-62
2023/09/20 05:45:05;;;;;;;2.38;1.40;;;;;;;13.92;65.22;99492.81;10302033;28;20600;-62
2023/09/20 05:50:13;;;;;;;2.00;1.10;;;;;;;14.03;65.25;99497.19;10286037;28;20796;-62
2023/09/20 05:55:15;;;;;;;2.55;1.35;;;;;;;14.06;65.05;99487.28;10299400;28;20141;-62
2023/09/20 06:00:21;;;;;;;2.22;1.20;;;;;;;14.34;64.83;99494.59;10284490;28;20054;-62
2023/09/20 06:05:26;;;;;;;3.95;1.30;;;;;;;14.45;64.44;99488.44;10301810;28;20080;-62
2023/09/20 06:10:28;;;;;;;4.50;1.52;;;;;;;14.40;64.82;99493.22;10301193;28;20569;-62
2023/09/20 06:15:30;;;;;;;2.22;1.13;;;;;;;14.60;64.59;99489.81;10297805;28;20468;-62
2023/09/20 06:20:33;;;;;;;2.22;1.30;;;;;;;14.81;64.44;99474.88;10294278;28;20061;-62
2023/09/20 06:25:35;;;;;;;5.45;1.98;;;;;;;14.91;64.42;99485.44;10291737;28;20049;-62
2023/09/20 06:30:37;;;;;;;3.55;1.33;;;;;;;15.09;64.06;99474.19;10279948;28;20806;-62
2023/09/20 06:35:40;;;;;;;4.10;1.20;;;;;;;15.24;63.62;99486.06;10292750;28;20107;-62
2023/09/20 06:40:50;;;;;;;3.50;1.05;;;;;;;15.38;63.39;99477.81;10288790;28;20050;-62
2023/09/20 06:45:52;;;;;;;4.20;1.30;;;;;;;15.53;63.49;99474.84;10261024;28;20459;-62
2023/09/20 06:50:54;;;;;;;3.28;1.40;;;;;;;15.66;63.02;99481.53;10290508;28;20053;-62
2023/09/20 06:55:59;;;;;;;2.00;1.00;;;;;;;15.93;62.77;99478.25;10290114;28;20292;-62
2023/09/20 07:01:04;;;;;;;5.05;1.35;;;;;;;16.11;62.59;99459.00;10291294;28;20054;-63
2023/09/20 07:06:06;;;;;;;2.25;1.25;;;;;;;16.27;62.64;99470.78;10287071;28;20335;-62
2023/09/20 07:11:08;;;;;;;2.97;0.98;;;;;;;16.35;62.63;99473.56;10266833;28;20078;-62
2023/09/20 07:16:10;;;;;;;1.92;1.13;;;;;;;16.55;62.02;99470.81;10303481;28;20145;-62
2023/09/20 07:21:14;;;;;;;2.95;1.45;;;;;;;16.81;61.92;99471.06;10295275;28;20418;-62
2023/09/20 07:26:16;;;;;;;4.82;1.52;;;;;;;17.08;61.50;99479.03;10272857;28;20046;-62
2023/09/20 07:31:20;;;;;;;2.92;1.13;;;;;;;17.42;61.16;99474.94;10296195;28;20640;-62
2023/09/20 07:36:23;;;;;;;5.57;1.80;;;;;;;17.51;60.84;99476.69;10299268;28;20066;-63
2023/09/20 07:41:50;;;;;;;2.22;1.10;;;;;;;17.91;60.25;99475.50;10299103;28;20065;-63
2023/09/20 07:46:52;;;;;;;18.65;5.00;;;;;;;18.25;59.92;99471.25;10293842;28;20178;-63
2023/09/20 07:51:55;;;;;;;38.13;10.02;;;;;;;18.59;59.45;99478.34;10296579;28;20050;-63
2023/09/20 07:56:57;;;;;;;34.58;8.98;;;;;;;18.85;58.98;99472.25;10291473;28;20497;-63
2023/09/20 08:02:00;;;;;;;52.42;14.15;;;;;;;18.99;58.46;99475.13;10288406;28;20042;-64
2023/09/20 08:07:04;;;;;;;10.40;4.28;;;;;;;19.35;58.23;99478.53;10290504;28;20350;-63
2023/09/20 08:12:09;;;;;;;5.50;1.75;;;;;;;19.99;56.85;99467.38;10289625;28;20042;-63
2023/09/20 09:00:19;;;;;;;4.57;1.70;;;;;;;21.00;52.48;99449.16;10293998;28;20622;-63
2023/09/20 09:05:25;;;;;;;2.40;1.20;;;;;;;21.41;51.31;99438.41;10292776;28;20054;-63
2023/09/20 09:10:29;;;;;;;3.88;1.15;;;;;;;21.77;50.79;99436.91;10273452;28;20046;-63
2023/09/20 09:15:31;;;;;;;2.08;1.20;;;;;;;21.91;50.40;99433.50;10296079;28;20038;-64
2023/09/20 09:20:35;;;;;;;2.95;1.40;;;;;;;22.43;49.87;99434.47;10282155;28;20098;-63
2023/09/20 09:25:38;;;;;;;4.25;1.77;;;;;;;23.18;49.05;99421.13;10251618;28;20042;-63
2023/09/20 09:30:42;;;;;;;1.80;1.00;;;;;;;23.55;47.88;99413.03;10284642;28;20073;-63
2023/09/20 09:35:48;;;;;;;1.85;1.10;;;;;;;23.39;47.07;99405.19;10288354;28;20046;-64
2023/09/20 09:40:53;;;;;;;2.35;1.38;;;;;;;23.24;48.13;99397.19;10296825;28;20055;-63
2023/09/20 09:46:04;;;;;;;2.35;1.20;;;;;;;22.72;47.87;99400.94;10281255;28;20430;-63
2023/09/20 09:51:08;;;;;;;4.35;1.20;;;;;;;22.97;48.40;99397.00;10285145;28;20070;-64
2023/09/20 09:56:13;;;;;;;2.13;1.20;;;;;;;22.73;48.31;99397.25;10285883;28;20042;-63
2023/09/20 10:01:15;;;;;;;3.40;1.10;;;;;;;23.01;48.01;99391.13;10290523;28;20140;-63
2023/09/20 10:06:25;;;;;;;2.22;1.20;;;;;;;23.25;47.00;99398.00;10295180;28;20069;-63
2023/09/20 10:11:27;;;;;;;3.13;1.27;;;;;;;23.17;48.14;99390.09;10295443;28;20039;-63
2023/09/20 10:16:30;;;;;;;1.50;0.80;;;;;;;23.04;48.00;99384.59;10295724;28;20183;-63
2023/09/20 10:21:33;;;;;;;1.80;1.10;;;;;;;22.93;48.23;99388.56;10294326;28;20073;-63
2023/09/20 10:26:38;;;;;;;4.53;1.10;;;;;;;22.78;48.09;99395.69;10297050;28;20043;-63
2023/09/20 10:31:41;;;;;;;1.80;1.02;;;;;;;23.12;48.24;99387.19;10296436;28;20139;-63
2023/09/20 10:36:53;;;;;;;1.90;0.82;;;;;;;23.24;47.21;99381.19;10294176;28;20061;-63
2023/09/20 10:42:08;;;;;;;1.33;0.82;;;;;;;23.41;45.94;99381.84;10282661;28;20054;-63
2023/09/20 10:47:14;;;;;;;1.75;0.90;;;;;;;24.04;45.80;99371.22;10297216;28;20515;-63
2023/09/20 10:52:58;;;;;;;3.22;0.90;;;;;;;23.92;44.56;99372.75;10278329;28;20141;-63
2023/09/20 10:58:01;;;;;;;3.50;1.00;;;;;;;24.10;45.13;99362.47;10301192;28;20525;-63
2023/09/20 11:03:04;;;;;;;1.80;0.80;;;;;;;24.15;45.50;99353.91;10277406;28;20034;-63
2023/09/20 11:08:08;;;;;;;1.67;0.77;;;;;;;24.23;45.01;99343.91;10294454;28;20584;-63
2023/09/20 11:13:12;;;;;;;1.00;0.70;;;;;;;24.45;44.99;99335.84;10298223;28;20047;-63
2023/09/20 11:18:17;;;;;;;1.58;0.80;;;;;;;24.72;43.27;99327.84;10300505;28;20414;-63
2023/09/20 11:23:19;;;;;;;2.25;1.25;;;;;;;24.51;44.47;99327.84;10293809;28;20047;-64
2023/09/20 11:28:21;;;;;;;1.17;0.85;;;;;;;24.70;44.09;99321.00;10293621;28;20557;-62
2023/09/20 11:33:28;;;;;;;1.63;1.23;;;;;;;25.21;42.37;99313.47;10292888;28;20143;-63
2023/09/20 11:38:32;;;;;;;2.03;1.00;;;;;;;25.15;43.17;99309.72;10276033;28;20517;-63
2023/09/20 11:43:41;;;;;;;1.63;0.88;;;;;;;25.05;42.78;99307.44;10289222;28;20069;-63
2023/09/20 11:48:43;;;;;;;1.67;1.05;;;;;;;25.04;43.27;99297.75;10296737;28;20510;-63
2023/09/20 11:53:46;;;;;;;1.67;1.15;;;;;;;24.98;43.08;99292.38;10272520;28;20152;-63
2023/09/20 11:58:49;;;;;;;1.08;0.80;;;;;;;25.17;43.12;99291.63;10293743;28;20057;-63
2023/09/20 12:03:51;;;;;;;0.95;0.80;;;;;;;24.91;42.72;99270.97;10292126;28;20043;-63
2023/09/20 12:08:54;;;;;;;1.83;1.05;;;;;;;24.76;43.04;99266.75;10283059;28;20058;-63
2023/09/20 12:13:56;;;;;;;1.45;0.88;;;;;;;24.85;43.03;99262.91;10293481;28;20050;-63
2023/09/20 12:18:59;;;;;;;1.38;0.85;;;;;;;24.82;42.22;99255.25;10293969;28;20069;-63
2023/09/20 12:24:01;;;;;;;3.08;1.02;;;;;;;24.63;42.13;99246.09;10290360;28;20065;-63
2023/09/20 12:29:03;;;;;;;1.95;1.02;;;;;;;24.69;41.58;99233.78;10289689;28;20050;-62
2023/09/20 12:34:06;;;;;;;2.60;0.93;;;;;;;24.61;41.97;99229.41;10290030;28;20913;-62
2023/09/20 12:39:10;;;;;;;1.92;0.85;;;;;;;24.65;41.75;99227.19;10292043;28;21079;-63
2023/09/20 12:44:12;;;;;;;1.85;0.90;;;;;;;25.15;41.41;99218.75;10286857;28;20137;-63
2023/09/20 12:49:14;;;;;;;1.30;0.85;;;;;;;25.25;41.34;99213.84;10294907;28;20869;-62
2023/09/20 12:54:16;;;;;;;1.48;0.85;;;;;;;25.35;41.05;99190.19;10240795;28;20228;-62
2023/09/20 12:59:19;;;;;;;2.78;1.05;;;;;;;25.60;39.65;99185.06;10292150;28;20055;-63
2023/09/20 13:04:21;;;;;;;2.13;1.10;;;;;;;25.26;40.58;99170.00;10290732;28;20312;-62
2023/09/20 13:09:24;;;;;;;1.98;1.10;;;;;;;24.97;40.14;99176.53;10295451;28;20434;-62
2023/09/20 13:14:26;;;;;;;1.92;0.85;;;;;;;25.06;40.44;99164.59;10292503;28;20581;-62
2023/09/20 13:19:28;;;;;;;3.42;1.30;;;;;;;25.17;39.87;99157.00;10295212;28;20061;-62
2023/09/20 13:24:33;;;;;;;2.13;1.13;;;;;;;25.25;39.92;99157.63;10289881;28;20050;-62
2023/09/20 13:29:35;;;;;;;2.35;1.10;;;;;;;25.04;39.83;99163.97;10282915;28;20137;-62
2023/09/20 13:34:38;;;;;;;2.22;1.08;;;;;;;24.90;39.60;99150.75;10298720;28;20129;-62
2023/09/20 13:39:42;;;;;;;1.70;1.10;;;;;;;24.60;40.20;99144.88;10296966;28;20050;-62
2023/09/20 13:44:45;;;;;;;2.20;1.00;;;;;;;24.47;40.65;99152.03;10299550;28;20046;-62
2023/09/20 13:49:50;;;;;;;2.58;1.00;;;;;;;24.35;40.37;99154.44;10296028;28;20509;-62
2023/09/20 13:54:52;;;;;;;1.00;0.75;;;;;;;24.03;41.01;99147.03;10297381;28;20103;-61
2023/09/20 13:59:57;;;;;;;1.55;0.90;;;;;;;23.93;41.08;99133.19;10297322;28;20038;-63
2023/09/20 14:04:59;;;;;;;6.78;1.20;;;;;;;24.17;41.42;99141.59;10262718;28;20046;-62
2023/09/20 14:10:02;;;;;;;2.03;1.00;;;;;;;24.33;41.39;99131.63;10294017;28;20411;-62
2023/09/20 14:15:06;;;;;;;4.05;1.30;;;;;;;24.45;41.67;99124.69;10281301;28;20487;-62
2023/09/20 14:20:15;;;;;;;2.50;1.10;;;;;;;24.42;41.49;99119.72;10295424;28;20054;-62
2023/09/20 14:25:17;;;;;;;;;;;;;;;24.43;41.08;99122.19;10302570;28;20662;-62
2023/09/20 14:30:20;;;;;;;2.20;1.00;;;;;;;24.55;40.37;99112.56;10281766;28;20368;-62
2023/09/20 14:35:23;;;;;;;1.95;1.08;;;;;;;24.49;40.09;99112.56;10283080;28;20152;-62
2023/09/20 14:40:26;;;;;;;2.03;1.05;;;;;;;24.53;39.53;99101.25;10267692;28;20061;-62
2023/09/20 14:45:29;;;;;;;1.30;0.88;;;;;;;24.54;40.62;99099.41;10297771;28;20054;-62
2023/09/20 14:50:33;;;;;;;2.25;1.10;;;;;;;24.64;40.29;99097.16;10298171;28;20137;-61
2023/09/20 14:55:36;;;;;;;3.35;1.40;;;;;;;24.81;40.47;99090.47;10300712;28;20054;-62
2023/09/20 15:00:39;;;;;;;6.32;1.65;;;;;;;24.68;40.55;99066.31;10299260;28;20515;-62
2023/09/20 15:05:41;;;;;;;2.20;0.95;;;;;;;24.82;40.82;99068.84;10302618;28;20777;-62
2023/09/20 15:10:43;;;;;;;2.72;1.30;;;;;;;24.90;40.82;99063.31;10301955;28;20039;-62
2023/09/20 15:15:45;;;;;;;2.65;1.23;;;;;;;24.93;40.75;99048.72;10300551;28;20057;-62
2023/09/20 15:20:48;;;;;;;1.67;1.00;;;;;;;25.03;40.70;99049.97;10300971;28;20055;-62
2023/09/20 15:25:51;;;;;;;2.88;1.10;;;;;;;24.89;40.29;99044.81;10300753;28;20127;-62
2023/09/20 15:30:54;;;;;;;1.35;1.05;;;;;;;24.46;40.84;99038.94;10298653;28;20107;-62
2023/09/20 15:36:15;;;;;;;1.98;1.00;;;;;;;24.44;39.59;99032.13;10290908;28;20061;-62
2023/09/20 15:41:22;;;;;;;2.33;0.98;;;;;;;24.27;40.57;99021.81;10309670;28;20395;-62
2023/09/20 15:46:24;;;;;;;2.05;0.98;;;;;;;23.89;41.04;99030.47;10294033;28;20273;-62
2023/09/20 15:51:26;;;;;;;1.73;0.90;;;;;;;23.78;41.20;99020.38;10298668;28;20054;-62
2023/09/20 15:56:28;;;;;;;3.30;1.02;;;;;;;23.73;41.26;99012.94;10283560;28;20053;-62
2023/09/20 16:01:31;;;;;;;1.98;1.20;;;;;;;23.85;41.16;99011.34;10298785;28;20046;-62
2023/09/20 16:06:36;;;;;;;2.20;1.30;;;;;;;23.97;40.78;99008.94;10282111;28;20056;-62
2023/09/20 16:11:38;;;;;;;3.17;1.10;;;;;;;23.86;41.06;99006.84;10298848;28;20050;-62
2023/09/20 16:16:40;;;;;;;3.28;1.23;;;;;;;23.76;40.80;99003.72;10298631;28;20034;-62
2023/09/20 16:21:42;;;;;;;6.40;1.25;;;;;;;23.55;40.84;98990.44;10275031;28;20054;-62
2023/09/20 16:26:45;;;;;;;1.65;1.00;;;;;;;23.64;41.28;98994.59;10298963;28;20343;-63
2023/09/20 16:31:49;;;;;;;1.40;1.20;;;;;;;23.60;41.95;98991.50;10295250;28;20050;-62
2023/09/20 16:36:51;;;;;;;3.10;0.95;;;;;;;23.42;42.03;98993.84;10296428;28;20047;-63
2023/09/20 16:41:53;;;;;;;2.28;1.08;;;;;;;23.29;42.54;98988.41;10295861;28;20137;-63
2023/09/20 16:46:55;;;;;;;4.50;1.27;;;;;;;23.13;42.92;98991.38;10295087;28;20123;-63
2023/09/20 16:51:59;;;;;;;2.65;1.00;;;;;;;22.94;43.21;98989.38;10296861;28;20074;-63
2023/09/20 16:57:02;;;;;;;1.75;0.90;;;;;;;22.69;43.74;98984.44;10293137;28;20044;-63
2023/09/20 17:02:04;;;;;;;1.48;0.93;;;;;;;22.53;44.04;98991.88;10290323;28;20054;-63
2023/09/20 17:07:06;;;;;;;3.30;1.10;;;;;;;22.32;44.32;98984.69;10293255;28;20042;-62
2023/09/20 17:12:08;;;;;;;1.65;1.00;;;;;;;22.12;44.92;98977.50;10294441;28;20046;-63
2023/09/20 17:17:11;;;;;;;1.50;0.90;;;;;;;21.82;45.65;98982.03;10292569;28;20070;-63
2023/09/20 17:22:13;;;;;;;3.22;1.08;;;;;;;21.63;45.99;98982.59;10293240;28;20050;-62
2023/09/20 17:27:15;;;;;;;1.63;1.10;;;;;;;21.41;46.69;98978.19;10285018;28;20410;-63
2023/09/20 17:32:31;;;;;;;1.98;1.10;;;;;;;21.17;47.39;98981.88;10291300;28;20053;-62
2023/09/20 17:37:35;;;;;;;3.83;1.10;;;;;;;20.95;47.90;98978.28;10284446;28;20124;-62
2023/09/20 17:42:38;;;;;;;1.83;1.13;;;;;;;20.69;48.32;98971.72;10287946;28;20678;-62
2023/09/20 17:47:43;;;;;;;4.28;1.55;;;;;;;20.48;48.97;98961.72;10294806;28;20766;-62
2023/09/20 17:52:46;;;;;;;3.03;1.30;;;;;;;20.34;49.21;98978.44;10284569;28;20081;-62
2023/09/20 17:57:49;;;;;;;2.33;1.05;;;;;;;20.15;49.70;98973.59;10289107;28;20038;-62
2023/09/20 18:02:55;;;;;;;6.07;1.50;;;;;;;19.90;50.18;98974.72;10276371;28;20046;-62
2023/09/20 18:08:01;;;;;;;3.63;1.10;;;;;;;19.78;50.75;98973.44;10292400;28;20071;-62
2023/09/20 18:13:03;;;;;;;2.45;1.10;;;;;;;19.67;51.29;98989.72;10295122;28;20046;-63
2023/09/20 18:18:06;;;;;;;3.08;1.30;;;;;;;19.36;52.22;98987.81;10298142;28;20501;-63
2023/09/20 18:23:09;;;;;;;3.00;1.40;;;;;;;19.18;52.45;98983.72;10295677;28;20526;-62
2023/09/20 18:28:14;;;;;;;5.25;1.45;;;;;;;19.04;52.75;98979.94;10277975;28;20042;-63
2023/09/20 18:33:18;;;;;;;5.93;1.50;;;;;;;18.86;53.13;98991.69;10296719;28;20121;-62
2023/09/20 18:38:20;;;;;;;1.75;1.20;;;;;;;18.75;53.65;98992.03;10296419;28;20406;-62
2023/09/20 18:43:22;;;;;;;3.40;1.20;;;;;;;18.62;53.98;99000.47;10261342;28;20043;-62
2023/09/20 18:48:25;;;;;;;3.22;1.10;;;;;;;18.46;54.60;99003.13;10298872;28;20487;-62
2023/09/20 18:53:27;;;;;;;2.10;1.20;;;;;;;18.41;55.13;98997.47;10300984;28;20140;-62
2023/09/20 18:58:33;;;;;;;4.28;1.90;;;;;;;18.20;55.56;98991.84;10298452;28;20054;-62
2023/09/20 19:03:35;;;;;;;3.50;1.73;;;;;;;18.01;55.51;98981.50;10295951;28;20051;-62
2023/09/20 19:08:37;;;;;;;2.85;1.40;;;;;;;17.91;55.87;98972.88;10298758;28;20563;-62
2023/09/20 19:13:40;;;;;;;2.72;1.23;;;;;;;17.79;56.54;98973.16;10299554;28;20054;-62
2023/09/20 19:18:54;;;;;;;1.92;1.30;;;;;;;17.64;56.68;98973.94;10294808;28;20087;-62
2023/09/20 19:23:58;;;;;;;2.53;1.17;;;;;;;17.61;57.02;98974.22;10281132;28;20062;-62
2023/09/20 19:29:00;;;;;;;2.55;1.70;;;;;;;17.46;57.28;98975.84;10297622;28;20065;-62
2023/09/20 19:34:02;;;;;;;2.47;1.30;;;;;;;17.31;57.54;98983.47;10296641;28;20046;-62
2023/09/20 19:39:05;;;;;;;2.50;1.38;;;;;;;17.20;58.23;98967.88;10280695;28;20061;-62
2023/09/20 19:44:08;;;;;;;3.53;1.75;;;;;;;17.23;58.11;98980.78;10294527;28;20077;-62
2023/09/20 19:49:10;;;;;;;3.00;1.23;;;;;;;17.26;58.19;98975.19;10297587;28;20391;-62
2023/09/20 19:54:14;;;;;;;6.90;1.85;;;;;;;17.20;58.38;98973.16;10277756;28;20773;-62
2023/09/20 19:59:16;;;;;;;6.95;1.80;;;;;;;17.08;58.66;98977.06;10289321;28;20085;-62
2023/09/20 20:04:18;;;;;;;3.05;1.48;;;;;;;16.70;59.33;98977.47;10289859;28;20064;-62
2023/09/20 20:09:20;;;;;;;1.83;1.20;;;;;;;16.56;59.82;98972.72;10291762;28;20070;-62
2023/09/20 20:14:23;;;;;;;1.38;1.00;;;;;;;16.39;59.81;98977.00;10295838;28;20496;-62
2023/09/20 20:19:27;;;;;;;1.45;1.10;;;;;;;16.47;59.98;98978.94;10291614;28;20145;-62
2023/09/20 20:24:30;;;;;;;1.95;1.20;;;;;;;16.40;60.14;98970.75;10293234;28;20758;-62
2023/09/20 20:29:32;;;;;;;3.88;1.40;;;;;;;16.40;60.05;98975.19;10288940;28;20325;-62
2023/09/20 20:34:38;;;;;;;2.92;1.30;;;;;;;16.41;60.49;98967.13;10292706;28;20085;-62
2023/09/20 20:39:40;;;;;;;2.50;1.45;;;;;;;16.39;60.45;98978.81;10292330;28;20053;-62
2023/09/20 20:44:43;;;;;;;3.45;1.52;;;;;;;16.42;60.37;98982.00;10290631;28;20047;-62
2023/09/20 20:49:45;;;;;;;4.57;1.30;;;;;;;16.27;60.59;98975.56;10277935;28;20529;-62
2023/09/20 20:54:47;;;;;;;2.35;1.27;;;;;;;16.13;60.99;98971.66;10293846;28;20140;-62
2023/09/20 20:59:49;;;;;;;5.05;2.15;;;;;;;16.17;60.83;98969.53;10262436;28;20089;-62
2023/09/20 21:04:52;;;;;;;3.05;1.58;;;;;;;16.16;61.07;98973.97;10294035;28;20645;-62
2023/09/20 21:09:54;;;;;;;2.88;1.40;;;;;;;16.16;61.00;98959.97;10293357;28;20038;-61
2023/09/20 21:14:56;;;;;;;4.55;1.40;;;;;;;16.01;61.37;98950.91;10293154;28;20420;-61
2023/09/20 21:19:58;;;;;;;4.80;1.50;;;;;;;15.69;61.81;98959.31;10294071;28;20403;-62
2023/09/20 21:25:00;;;;;;;2.63;1.40;;;;;;;15.78;62.00;98963.69;10276196;28;20042;-62
2023/09/20 21:30:04;;;;;;;2.25;1.40;;;;;;;15.84;61.88;98955.19;10293054;28;20042;-62
2023/09/20 21:35:07;;;;;;;2.85;1.52;;;;;;;15.82;61.88;98953.66;10291851;28;20509;-62
2023/09/20 21:40:09;;;;;;;5.15;1.33;;;;;;;15.75;62.17;98955.25;10292691;28;20537;-62
2023/09/20 21:45:11;;;;;;;2.67;1.30;;;;;;;15.56;62.07;98958.81;10291849;28;20202;-62
2023/09/20 21:50:13;;;;;;;3.58;1.30;;;;;;;15.54;62.41;98952.84;10301659;28;20048;-61
2023/09/20 21:55:15;;;;;;;2.08;1.10;;;;;;;15.43;62.54;98943.31;10301098;28;20046;-62
2023/09/20 22:05:22;;;;;;;4.00;1.70;;;;;;;15.38;62.94;98936.81;10301504;28;20054;-61
2023/09/20 22:10:25;;;;;;;1.73;0.90;;;;;;;15.39;62.96;98928.75;10299654;28;20047;-62
2023/09/20 22:15:27;;;;;;;1.27;0.98;;;;;;;15.39;63.19;98933.19;10303254;28;20051;-62
2023/09/20 22:20:31;;;;;;;3.25;1.20;;;;;;;15.45;62.99;98929.16;10301457;28;20046;-62
2023/09/20 22:25:34;;;;;;;2.88;1.40;;;;;;;15.29;62.98;98929.78;10300786;28;20045;-62
2023/09/20 22:30:38;;;;;;;4.50;1.30;;;;;;;15.13;63.40;98919.88;10300232;28;20273;-62
2023/09/20 22:35:41;;;;;;;1.67;1.08;;;;;;;15.18;63.51;98925.56;10283287;28;20137;-62
2023/09/20 22:40:43;;;;;;;1.65;1.13;;;;;;;15.17;63.52;98920.41;10298172;28;20042;-62
2023/09/20 22:45:47;;;;;;;2.38;1.30;;;;;;;15.13;63.48;98911.97;10298433;28;20054;-61
2023/09/20 22:50:50;;;;;;;2.30;1.00;;;;;;;15.01;63.52;98910.50;10281165;28;20520;-60
2023/09/20 22:55:52;;;;;;;1.70;1.17;;;;;;;15.06;63.59;98904.81;10300105;28;20054;-62
2023/09/20 23:00:54;;;;;;;2.80;1.52;;;;;;;15.04;63.26;98898.84;10294960;28;20472;-62
2023/09/20 23:05:56;;;;;;;2.22;1.17;;;;;;;14.99;63.56;98890.53;10273589;28;20164;-61
2023/09/20 23:10:59;;;;;;;3.47;1.30;;;;;;;15.02;63.35;98890.28;10300032;28;20856;-61
2023/09/20 23:16:07;;;;;;;3.47;1.70;;;;;;;15.01;63.46;98883.31;10256882;28;20144;-61
2023/09/20 23:21:09;;;;;;;3.88;1.50;;;;;;;14.99;63.23;98885.28;10298479;28;20494;-61
2023/09/20 23:26:12;;;;;;;2.03;1.10;;;;;;;14.94;63.46;98880.44;10297462;28;20133;-61
2023/09/20 23:31:18;;;;;;;2.78;1.10;;;;;;;14.84;63.40;98882.28;10294647;28;20777;-61
2023/09/20 23:36:24;;;;;;;2.40;1.35;;;;;;;14.72;63.56;98872.06;10296338;28;20057;-61
2023/09/20 23:41:26;;;;;;;4.47;1.67;;;;;;;14.66;63.78;98877.91;10297039;28;20046;-61
2023/09/20 23:46:30;;;;;;;1.88;1.13;;;;;;;14.70;63.70;98871.38;10289056;28;20065;-62
2023/09/20 23:51:33;;;;;;;2.60;1.40;;;;;;;14.46;63.45;98862.13;10294214;28;20745;-62
2023/09/20 23:56:38;;;;;;;3.30;1.35;;;;;;;14.38;63.70;98861.19;10296978;28;20043;-62
